createdAt,value
2023-04-02T00:00:04.776Z,2.22
2023-04-02T00:02:59.238Z,2.20
2023-04-02T00:05:30.270Z,2.13
2023-04-02T00:07:59.262Z,2.47
2023-04-02T00:10:35.195Z,2.20
2023-04-02T00:13:05.692Z,2.10
2023-04-02T00:15:34.517Z,2.78
2023-04-02T00:18:02.175Z,3.97
2023-04-02T00:20:30.662Z,2.58
2023-04-02T00:22:58.156Z,3.25
2023-04-02T00:25:28.552Z,3.80
2023-04-02T00:27:56.991Z,3.88
2023-04-02T00:30:26.307Z,3.78
2023-04-02T00:32:58.242Z,4.00
2023-04-02T00:35:27.939Z,4.13
2023-04-02T00:37:56.315Z,4.25
2023-04-02T00:40:28.465Z,4.15
2023-04-02T00:42:56.746Z,3.88
2023-04-02T00:45:25.533Z,3.83
2023-04-02T00:47:53.302Z,4.10
2023-04-02T00:50:39.810Z,3.88
2023-04-02T00:53:24.410Z,4.55
2023-04-02T00:55:58.902Z,5.47
2023-04-02T00:58:35.776Z,6.95
2023-04-02T01:01:06.521Z,6.40
2023-04-02T01:03:35.597Z,4.30
2023-04-02T01:06:11.118Z,4.53
2023-04-02T01:08:44.385Z,4.47
2023-04-02T01:11:31.369Z,5.38
2023-04-02T01:14:06.020Z,3.50
2023-04-02T01:16:45.589Z,3.30
2023-04-02T01:19:31.119Z,3.47
2023-04-02T01:22:15.304Z,3.75
2023-04-02T01:24:44.207Z,3.75
2023-04-02T01:27:38.038Z,3.65
2023-04-02T01:30:08.071Z,3.60
2023-04-02T01:32:36.175Z,3.85
2023-04-02T01:35:03.540Z,3.50
2023-04-02T01:37:50.770Z,3.78
2023-04-02T01:40:24.067Z,5.03
2023-04-02T01:43:02.410Z,4.38
2023-04-02T01:45:30.683Z,3.60
2023-04-02T01:47:58.860Z,4.90
2023-04-02T01:50:32.675Z,5.18
2023-04-02T01:53:01.824Z,5.18
2023-04-02T01:55:32.942Z,5.30
2023-04-02T01:58:01.573Z,5.05
2023-04-02T02:00:30.495Z,4.85
2023-04-02T02:03:00.367Z,4.70
2023-04-02T02:05:28.595Z,5.13
2023-04-02T02:07:57.541Z,6.20
2023-04-02T02:10:33.328Z,6.38
2023-04-02T02:13:00.832Z,6.43
2023-04-02T02:15:28.836Z,7.60
2023-04-02T02:17:58.986Z,9.20
2023-04-02T02:20:27.607Z,10.05
2023-04-02T02:22:55.505Z,12.50
2023-04-02T02:25:24.671Z,12.80
2023-04-02T02:28:07.167Z,14.27
2023-04-02T02:30:37.789Z,14.77
2023-04-02T02:33:23.839Z,15.15
2023-04-02T02:36:00.883Z,16.02
2023-04-02T02:38:35.766Z,17.65
2023-04-02T02:41:18.288Z,15.82
2023-04-02T02:43:50.229Z,15.07
2023-04-02T02:46:20.473Z,14.55
2023-04-02T02:48:48.266Z,12.98
2023-04-02T02:51:27.593Z,11.98
2023-04-02T02:53:57.583Z,11.32
2023-04-02T02:56:25.880Z,9.50
2023-04-02T02:58:53.497Z,9.98
2023-04-02T03:01:24.943Z,10.00
2023-04-02T03:03:55.154Z,12.30
2023-04-02T03:06:24.465Z,14.32
2023-04-02T03:08:56.570Z,14.80
2023-04-02T03:11:32.389Z,18.17
2023-04-02T03:14:09.908Z,18.20
2023-04-02T03:16:39.796Z,17.08
2023-04-02T03:19:26.753Z,18.85
2023-04-02T03:22:07.981Z,21.77
2023-04-02T03:24:41.650Z,19.38
2023-04-02T03:27:09.188Z,20.58
2023-04-02T03:32:29.647Z,20.60
2023-04-02T03:35:02.016Z,23.05
2023-04-02T03:37:42.477Z,24.55
2023-04-02T03:43:34.582Z,27.92
2023-04-02T03:46:25.408Z,27.75
2023-04-02T03:49:10.394Z,30.38
2023-04-02T03:51:56.730Z,31.60
2023-04-02T03:54:24.354Z,31.58
2023-04-02T03:56:53.187Z,29.63
2023-04-02T03:59:25.918Z,31.95
2023-04-02T04:01:59.147Z,31.40
2023-04-02T04:04:32.083Z,31.85
2023-04-02T04:07:02.027Z,31.55
2023-04-02T04:09:34.179Z,33.00
2023-04-02T04:12:20.231Z,31.25
2023-04-02T04:14:54.619Z,33.47
2023-04-02T04:17:51.845Z,33.92
2023-04-02T04:20:26.661Z,36.55
2023-04-02T04:23:01.028Z,35.35
2023-04-02T04:25:37.966Z,38.65
2023-04-02T04:28:22.586Z,38.00
2023-04-02T04:31:04.538Z,38.30
2023-04-02T04:33:41.200Z,38.88
2023-04-02T04:36:21.847Z,37.03
2023-04-02T04:38:55.419Z,37.22
2023-04-02T04:43:56.512Z,38.10
2023-04-02T04:46:28.562Z,37.58
2023-04-02T04:49:00.859Z,37.92
2023-04-02T04:51:37.538Z,36.28
2023-04-02T04:54:05.224Z,38.58
2023-04-02T04:56:35.139Z,36.63
2023-04-02T04:59:19.829Z,35.97
2023-04-02T05:01:48.237Z,31.98
2023-04-02T05:04:18.773Z,30.05
2023-04-02T05:06:56.024Z,31.60
2023-04-02T05:09:38.162Z,37.30
2023-04-02T05:15:15.252Z,42.92
2023-04-02T05:17:57.862Z,39.97
2023-04-02T05:20:27.745Z,43.00
2023-04-02T05:23:06.311Z,41.65
2023-04-02T05:25:34.706Z,38.53
2023-04-02T05:28:17.041Z,43.13
2023-04-02T05:36:33.730Z,43.75
2023-04-02T05:39:01.844Z,43.95
2023-04-02T05:41:40.977Z,42.65
2023-04-02T05:44:31.607Z,41.17
2023-04-02T05:47:13.880Z,41.88
2023-04-02T05:49:44.195Z,40.00
2023-04-02T05:52:17.202Z,37.80
2023-04-02T05:54:45.995Z,39.28
2023-04-02T05:57:17.510Z,38.78
2023-04-02T05:59:46.979Z,38.20
2023-04-02T06:02:35.593Z,39.53
2023-04-02T06:05:24.184Z,40.20
2023-04-02T06:08:06.578Z,40.58
2023-04-02T06:10:43.207Z,40.80
2023-04-02T06:13:15.001Z,39.63
2023-04-02T06:15:44.553Z,38.63
2023-04-02T06:18:18.699Z,42.13
2023-04-02T06:20:47.374Z,41.10
2023-04-02T06:23:22.507Z,42.92
2023-04-02T06:25:55.401Z,42.63
2023-04-02T06:28:28.288Z,37.15
2023-04-02T06:30:58.285Z,34.95
2023-04-02T06:33:26.084Z,34.22
2023-04-02T06:35:56.009Z,35.05
2023-04-02T06:38:32.900Z,35.33
2023-04-02T06:41:05.857Z,35.03
2023-04-02T06:43:51.461Z,38.20
2023-04-02T06:46:39.031Z,39.35
2023-04-02T06:49:20.995Z,38.45
2023-04-02T06:51:54.849Z,43.97
2023-04-02T06:54:22.265Z,38.10
2023-04-02T06:56:56.501Z,39.50
2023-04-02T06:59:43.754Z,37.03
2023-04-02T07:02:25.026Z,36.50
2023-04-02T07:04:52.646Z,37.95
2023-04-02T07:07:21.119Z,37.38
2023-04-02T07:09:49.744Z,36.53
2023-04-02T07:12:23.107Z,34.35
2023-04-02T07:14:51.008Z,36.75
2023-04-02T07:17:19.500Z,36.20
2023-04-02T07:19:49.773Z,37.90
2023-04-02T07:22:19.434Z,38.88
2023-04-02T07:24:49.658Z,40.67
2023-04-02T07:27:16.848Z,38.35
2023-04-02T07:29:46.532Z,29.48
2023-04-02T07:32:13.598Z,29.02
2023-04-02T07:34:41.222Z,30.42
2023-04-02T07:37:08.450Z,32.17
2023-04-02T07:39:36.928Z,28.25
2023-04-02T07:42:05.145Z,30.55
2023-04-02T07:44:31.861Z,36.00
2023-04-02T07:46:58.862Z,35.35
2023-04-02T07:49:25.744Z,33.50
2023-04-02T07:51:53.021Z,31.48
2023-04-02T07:54:19.782Z,30.90
2023-04-02T07:56:46.704Z,31.10
2023-04-02T07:59:13.548Z,31.77
2023-04-02T08:01:40.378Z,29.75
2023-04-02T08:04:16.028Z,29.75
2023-04-02T08:06:42.851Z,27.60
2023-04-02T08:09:09.642Z,29.15
2023-04-02T08:11:36.348Z,26.60
2023-04-02T08:14:03.379Z,25.20
2023-04-02T08:16:43.265Z,23.35
2023-04-02T08:19:09.976Z,24.50
2023-04-02T08:21:36.771Z,25.10
2023-04-02T08:24:04.337Z,25.35
2023-04-02T08:26:31.255Z,23.13
2023-04-02T08:28:58.088Z,22.88
2023-04-02T08:31:24.891Z,22.08
2023-04-02T08:33:51.693Z,22.10
2023-04-02T08:36:19.244Z,22.73
2023-04-02T08:38:46.971Z,23.42
2023-04-02T08:41:19.972Z,22.67
2023-04-02T08:44:02.305Z,23.55
2023-04-02T08:46:47.528Z,24.33
2023-04-02T08:49:15.643Z,21.15
2023-04-02T08:51:42.482Z,20.80
2023-04-02T08:54:20.329Z,21.38
2023-04-02T08:57:10.716Z,22.63
2023-04-02T08:59:41.892Z,23.48
2023-04-02T09:02:14.826Z,23.75
2023-04-02T09:04:42.930Z,23.42
2023-04-02T09:07:17.305Z,24.42
2023-04-02T09:09:46.884Z,26.23
2023-04-02T09:12:21.440Z,24.50
2023-04-02T09:15:06.060Z,24.15
2023-04-02T09:17:42.672Z,23.77
2023-04-02T09:20:21.666Z,23.80
2023-04-02T09:22:51.576Z,25.75
2023-04-02T09:25:30.274Z,24.48
2023-04-02T09:28:00.852Z,25.05
2023-04-02T09:30:34.276Z,24.58
2023-04-02T09:35:30.595Z,26.85
2023-04-02T09:38:10.035Z,26.60
2023-04-02T09:40:43.255Z,28.65
2023-04-02T09:43:14.965Z,26.10
2023-04-02T09:45:43.186Z,25.75
2023-04-02T09:48:30.567Z,26.98
2023-04-02T09:51:09.868Z,23.67
2023-04-02T09:53:39.898Z,21.45
2023-04-02T09:56:21.998Z,19.20
2023-04-02T09:59:09.195Z,20.98
2023-04-02T10:01:38.976Z,19.42
2023-04-02T10:04:26.459Z,18.10
2023-04-02T10:06:58.239Z,20.23
2023-04-02T10:09:30.575Z,20.13
2023-04-02T10:11:58.721Z,19.17
2023-04-02T10:14:30.233Z,19.33
2023-04-02T10:16:59.834Z,18.92
2023-04-02T10:19:32.696Z,19.88
2023-04-02T10:22:02.548Z,18.73
2023-04-02T10:24:30.110Z,18.25
2023-04-02T10:27:18.373Z,19.05
2023-04-02T10:30:04.148Z,19.65
2023-04-02T10:32:43.057Z,19.98
2023-04-02T10:35:16.915Z,18.92
2023-04-02T10:37:50.228Z,17.90
2023-04-02T10:40:34.885Z,18.33
2023-04-02T10:43:20.787Z,18.40
2023-04-02T10:46:02.302Z,20.15
2023-04-02T10:48:43.718Z,20.80
2023-04-02T10:51:11.057Z,18.58
2023-04-02T10:53:57.524Z,19.27
2023-04-02T10:56:25.157Z,16.15
2023-04-02T10:58:58.676Z,15.43
2023-04-02T11:03:57.796Z,22.20
2023-04-02T11:06:44.047Z,18.38
2023-04-02T11:09:22.180Z,15.48
2023-04-02T11:11:50.705Z,15.07
2023-04-02T11:14:21.002Z,16.10
2023-04-02T11:16:52.194Z,16.90
2023-04-02T11:19:19.070Z,17.23
2023-04-02T11:21:57.907Z,15.15
2023-04-02T11:24:33.140Z,11.15
2023-04-02T11:27:12.222Z,11.77
2023-04-02T11:29:41.139Z,11.20
2023-04-02T11:32:16.182Z,9.23
2023-04-02T11:35:03.004Z,10.70
2023-04-02T11:37:32.504Z,7.65
2023-04-02T11:40:00.393Z,7.00
2023-04-02T11:42:28.623Z,7.93
2023-04-02T11:44:56.665Z,7.43
2023-04-02T11:47:27.652Z,6.40
2023-04-02T11:49:54.559Z,7.45
2023-04-02T11:52:24.544Z,7.43
2023-04-02T11:54:59.060Z,7.57
2023-04-02T11:57:47.055Z,6.93
2023-04-02T12:00:29.230Z,7.05
2023-04-02T12:03:04.457Z,6.90
2023-04-02T12:05:37.682Z,8.35
2023-04-02T12:10:34.536Z,5.60
2023-04-02T12:13:01.287Z,5.78
2023-04-02T12:15:42.430Z,5.55
2023-04-02T12:18:16.884Z,5.40
2023-04-02T12:20:48.353Z,5.55
2023-04-02T12:23:22.708Z,4.25
2023-04-02T12:25:58.432Z,4.80
2023-04-02T12:28:28.912Z,4.40
2023-04-02T12:31:08.095Z,4.38
2023-04-02T12:33:37.519Z,4.15
2023-04-02T12:36:06.683Z,3.58
2023-04-02T12:38:34.908Z,3.55
2023-04-02T12:41:03.808Z,4.40
2023-04-02T12:43:31.825Z,3.25
2023-04-02T12:46:00.386Z,2.72
2023-04-02T12:48:27.968Z,3.83
2023-04-02T12:50:55.331Z,3.20
2023-04-02T12:53:29.425Z,3.47
2023-04-02T12:55:56.552Z,2.47
2023-04-02T12:58:38.020Z,2.10
2023-04-02T13:01:16.632Z,2.03
2023-04-02T13:03:45.267Z,1.67
2023-04-02T13:06:21.439Z,1.70
2023-04-02T13:08:48.827Z,1.80
2023-04-02T13:11:16.087Z,1.80
2023-04-02T13:13:44.422Z,1.55
2023-04-02T13:16:11.578Z,1.50
2023-04-02T13:18:39.252Z,1.80
2023-04-02T13:21:21.790Z,2.20
2023-04-02T13:23:49.020Z,2.00
2023-04-02T13:26:17.132Z,1.70
2023-04-02T13:28:55.585Z,2.08
2023-04-02T13:31:22.832Z,2.05
2023-04-02T13:33:49.899Z,2.13
2023-04-02T13:36:17.004Z,1.95
2023-04-02T13:38:44.168Z,1.63
2023-04-02T13:41:19.190Z,1.60
2023-04-02T13:43:46.333Z,2.00
2023-04-02T13:46:18.232Z,2.20
2023-04-02T13:48:45.349Z,1.58
2023-04-02T13:51:16.100Z,1.52
2023-04-02T13:53:43.430Z,1.20
2023-04-02T13:56:10.497Z,1.17
2023-04-02T13:58:37.525Z,1.40
2023-04-02T14:01:04.960Z,1.40
2023-04-02T14:03:32.347Z,1.45
2023-04-02T14:06:26.457Z,1.50
2023-04-02T14:09:02.333Z,1.50
2023-04-02T14:11:29.281Z,1.63
2023-04-02T14:14:02.197Z,1.60
2023-04-02T14:16:44.610Z,1.58
2023-04-02T14:19:18.151Z,1.17
2023-04-02T14:24:17.466Z,1.73
2023-04-02T14:27:03.571Z,1.92
2023-04-02T14:29:34.131Z,2.08
2023-04-02T14:32:20.201Z,2.25
2023-04-02T14:34:53.176Z,2.08
2023-04-02T14:37:20.096Z,2.03
2023-04-02T14:39:57.438Z,1.90
2023-04-02T14:42:39.773Z,1.80
2023-04-02T14:45:16.325Z,2.10
2023-04-02T14:47:45.720Z,1.85
2023-04-02T14:50:15.530Z,1.88
2023-04-02T14:52:44.019Z,2.38
2023-04-02T14:55:24.200Z,2.75
2023-04-02T14:57:53.744Z,2.20
2023-04-02T15:00:24.436Z,2.55
2023-04-02T15:02:54.761Z,2.45
2023-04-02T15:05:28.252Z,2.45
2023-04-02T15:08:00.965Z,2.85
2023-04-02T15:10:28.039Z,2.50
2023-04-02T15:12:57.035Z,3.80
2023-04-02T15:15:33.033Z,2.47
2023-04-02T15:18:06.432Z,2.25
2023-04-02T15:20:38.683Z,2.47
2023-04-02T15:23:26.289Z,2.28
2023-04-02T15:26:16.539Z,2.20
2023-04-02T15:28:50.009Z,2.33
2023-04-02T15:33:45.186Z,2.35
2023-04-02T15:36:29.964Z,1.90
2023-04-02T15:39:17.803Z,1.95
2023-04-02T15:42:08.026Z,2.40
2023-04-02T15:44:37.908Z,2.40
2023-04-02T15:47:14.055Z,2.45
2023-04-02T15:49:41.459Z,2.45
2023-04-02T15:52:22.581Z,2.67
2023-04-02T15:55:02.396Z,2.53
2023-04-02T15:57:50.734Z,2.03
2023-04-02T16:00:22.721Z,2.65
2023-04-02T16:02:53.561Z,2.25
2023-04-02T16:05:42.563Z,2.00
2023-04-02T16:08:09.638Z,1.92
2023-04-02T16:10:41.899Z,1.88
2023-04-02T16:13:23.772Z,2.15
2023-04-02T16:15:56.206Z,1.83
2023-04-02T16:18:46.323Z,1.75
2023-04-02T16:21:17.700Z,1.73
2023-04-02T16:23:44.757Z,2.45
2023-04-02T16:26:17.742Z,1.90
2023-04-02T16:29:04.908Z,2.03
2023-04-02T16:31:41.079Z,2.05
2023-04-02T16:34:11.093Z,2.33
2023-04-02T16:36:50.213Z,1.85
2023-04-02T16:39:22.820Z,1.70
2023-04-02T16:41:55.293Z,2.17
2023-04-02T16:44:50.442Z,2.58
2023-04-02T16:47:35.982Z,1.90
2023-04-02T16:50:09.045Z,2.13
2023-04-02T16:52:54.969Z,2.08
2023-04-02T16:55:23.734Z,1.83
2023-04-02T16:57:59.251Z,1.73
2023-04-02T17:00:42.622Z,1.88
2023-04-02T17:03:21.803Z,1.70
2023-04-02T17:05:56.283Z,1.85
2023-04-02T17:08:27.677Z,2.03
2023-04-02T17:10:54.586Z,1.70
2023-04-02T17:13:25.428Z,2.17
2023-04-02T17:16:01.615Z,2.10
2023-04-02T17:18:28.607Z,1.83
2023-04-02T17:20:57.612Z,3.45
2023-04-02T17:23:24.873Z,2.60
2023-04-02T17:25:57.550Z,2.90
2023-04-02T17:28:36.636Z,3.17
2023-04-02T17:31:06.265Z,3.53
2023-04-02T17:33:33.453Z,1.90
2023-04-02T17:36:00.468Z,2.40
2023-04-02T17:38:27.624Z,3.05
2023-04-02T17:40:54.750Z,3.10
2023-04-02T17:43:34.114Z,4.18
2023-04-02T17:46:07.876Z,3.80
2023-04-02T17:48:41.333Z,2.53
2023-04-02T17:51:08.332Z,2.90
2023-04-02T17:53:39.893Z,1.70
2023-04-02T17:56:17.597Z,1.90
2023-04-02T17:58:47.732Z,1.60
2023-04-02T18:01:30.359Z,1.40
2023-04-02T18:04:16.145Z,1.20
2023-04-02T18:07:01.969Z,1.60
2023-04-02T18:09:32.235Z,3.40
2023-04-02T18:12:17.967Z,2.20
2023-04-02T18:15:03.709Z,2.13
2023-04-02T18:17:37.944Z,2.42
2023-04-02T18:20:20.348Z,1.70
2023-04-02T18:22:59.428Z,1.98
2023-04-02T18:25:45.006Z,2.03
2023-04-02T18:28:15.310Z,1.98
2023-04-02T18:30:42.286Z,2.25
2023-04-02T18:33:20.375Z,2.85
2023-04-02T18:36:06.864Z,2.63
2023-04-02T18:38:46.536Z,2.30
2023-04-02T18:41:16.441Z,3.20
2023-04-02T18:43:46.374Z,3.30
2023-04-02T18:46:16.248Z,2.30
2023-04-02T18:48:59.144Z,2.70
2023-04-02T18:51:29.387Z,2.67
2023-04-02T18:54:24.039Z,2.33
2023-04-02T18:56:51.145Z,2.30
2023-04-02T18:59:38.094Z,3.15
2023-04-02T19:02:25.172Z,4.15
2023-04-02T19:04:58.009Z,2.20
2023-04-02T19:07:27.737Z,2.43
2023-04-02T19:09:56.184Z,2.40
2023-04-02T19:12:23.763Z,2.60
2023-04-02T19:14:52.414Z,2.20
2023-04-02T19:17:19.331Z,2.80
2023-04-02T19:20:02.134Z,2.30
2023-04-02T19:22:37.921Z,2.92
2023-04-02T19:25:17.700Z,2.25
2023-04-02T19:27:53.927Z,2.55
2023-04-02T19:30:38.870Z,2.95
2023-04-02T19:33:24.447Z,2.50
2023-04-02T19:35:59.577Z,2.60
2023-04-02T19:38:46.439Z,2.92
2023-04-02T19:41:13.204Z,2.75
2023-04-02T19:43:39.925Z,2.92
2023-04-02T19:46:06.745Z,3.22
2023-04-02T19:48:51.906Z,2.88
2023-04-02T19:51:18.790Z,2.90
2023-04-02T19:53:45.765Z,3.67
2023-04-02T19:56:12.620Z,4.18
2023-04-02T19:58:39.342Z,3.80
2023-04-02T20:01:06.269Z,5.07
2023-04-02T20:03:33.184Z,4.97
2023-04-02T20:06:00.176Z,4.25
2023-04-02T20:08:27.777Z,4.65
2023-04-02T20:10:54.691Z,5.20
2023-04-02T20:13:21.465Z,5.13
2023-04-02T20:15:48.144Z,4.65
2023-04-02T20:18:14.840Z,4.57
2023-04-02T20:20:41.586Z,4.15
2023-04-02T20:23:08.393Z,3.78
2023-04-02T20:25:35.104Z,4.00
2023-04-02T20:28:03.919Z,3.53
2023-04-02T20:30:32.502Z,3.47
2023-04-02T20:32:59.638Z,4.03
2023-04-02T20:35:26.739Z,5.10
2023-04-02T20:37:53.426Z,4.72
2023-04-02T20:40:20.216Z,4.68
2023-04-02T20:42:46.938Z,4.32
2023-04-02T20:45:13.876Z,8.65
2023-04-02T20:47:40.709Z,5.05
2023-04-02T20:50:07.725Z,4.82
2023-04-02T20:52:34.502Z,4.75
2023-04-02T20:55:01.754Z,4.70
2023-04-02T20:57:31.396Z,4.80
2023-04-02T20:59:59.001Z,4.43
2023-04-02T21:02:25.927Z,4.13
2023-04-02T21:04:52.761Z,4.13
2023-04-02T21:07:19.485Z,4.32
2023-04-02T21:09:46.279Z,3.90
2023-04-02T21:12:12.974Z,4.13
2023-04-02T21:14:40.308Z,5.18
2023-04-02T21:17:07.908Z,5.80
2023-04-02T21:19:35.095Z,5.97
2023-04-02T21:22:02.949Z,7.25
2023-04-02T21:24:30.376Z,5.50
2023-04-02T21:26:57.222Z,4.60
2023-04-02T21:29:24.027Z,4.45
2023-04-02T21:31:50.995Z,4.60
2023-04-02T21:34:17.845Z,4.80
2023-04-02T21:36:46.044Z,5.65
2023-04-02T21:39:16.981Z,4.78
2023-04-02T21:41:44.316Z,4.63
2023-04-02T21:44:13.614Z,4.80
2023-04-02T21:46:42.528Z,4.80
2023-04-02T21:49:10.654Z,4.97
2023-04-02T21:51:38.623Z,4.78
2023-04-02T21:54:05.780Z,5.35
2023-04-02T21:56:34.533Z,6.00
2023-04-02T21:59:05.220Z,5.97
2023-04-02T22:01:43.198Z,4.85
2023-04-02T22:04:14.415Z,5.13
2023-04-02T22:06:41.597Z,5.00
2023-04-02T22:09:09.885Z,4.85
2023-04-02T22:11:38.967Z,4.47
2023-04-02T22:14:05.988Z,4.55
2023-04-02T22:16:34.078Z,7.07
2023-04-02T22:19:02.901Z,6.50
2023-04-02T22:21:31.505Z,5.85
2023-04-02T22:24:02.703Z,4.25
2023-04-02T22:26:29.922Z,4.13
2023-04-02T22:28:56.671Z,5.50
2023-04-02T22:31:24.678Z,5.75
2023-04-02T22:33:51.897Z,5.20
2023-04-02T22:36:19.363Z,4.80
2023-04-02T22:38:46.349Z,5.53
2023-04-02T22:41:14.320Z,5.80
2023-04-02T22:43:42.900Z,5.70
2023-04-02T22:46:10.537Z,6.32
2023-04-02T22:48:39.882Z,6.43
2023-04-02T22:51:08.328Z,7.05
2023-04-02T22:53:36.527Z,7.22
2023-04-02T22:56:06.882Z,7.10
2023-04-02T22:58:34.387Z,7.00
2023-04-02T23:01:08.583Z,7.20
2023-04-02T23:03:35.759Z,6.90
2023-04-02T23:06:04.451Z,7.40
2023-04-02T23:08:31.348Z,7.32
2023-04-02T23:11:05.536Z,7.32
2023-04-02T23:13:33.270Z,7.15
2023-04-02T23:16:00.742Z,7.10
2023-04-02T23:18:27.809Z,6.70
2023-04-02T23:20:55.692Z,6.57
2023-04-02T23:23:22.693Z,6.88
2023-04-02T23:25:49.586Z,6.93
2023-04-02T23:28:16.689Z,7.00
2023-04-02T23:30:43.833Z,7.10
2023-04-02T23:33:10.499Z,5.70
2023-04-02T23:35:37.751Z,5.20
2023-04-02T23:38:04.874Z,5.30
2023-04-02T23:40:31.518Z,4.35
2023-04-02T23:42:58.166Z,5.03
2023-04-02T23:45:24.906Z,4.90
2023-04-02T23:47:51.709Z,8.07
2023-04-02T23:50:18.560Z,8.30
2023-04-02T23:52:45.461Z,8.02
2023-04-02T23:55:13.187Z,7.60
2023-04-02T23:57:40.433Z,7.20
